<?xml version="1.0" encoding="UTF-8" standalone="no" ?>
<gpx xmlns="http://www.topografix.com/GPX/1/1" xmlns:xsi="http://www.w3.org/2001/XMLSchema-instance" xsi:schemaLocation="http://www.topografix.com/GPX/1/1 http://www.topografix.com/GPX/1/1/gpx.xsd" version="1.1" creator="VisuGPX - https://www.visugpx.com">
  <metadata>
    <name>La Tour Sarrasine-Gigondas</name>
    <desc><![CDATA[Niveau facile]]></desc>
  </metadata>
  <trk>
    <name><![CDATA[Gigondas-La Tour Sarrasine - F]]></name>
    <trkseg>
      <trkpt lat="44.1637" lon="5.00459">
        <ele>254</ele>
        <time>2020-01-23T13:18:34Z</time>
      </trkpt>
      <trkpt lat="44.16372" lon="5.00454">
        <ele>253</ele>
        <time>2020-01-23T13:18:38.57Z</time>
      </trkpt>
      <trkpt lat="44.16339" lon="5.0043">
        <ele>252</ele>
        <time>2020-01-23T13:19:22.41Z</time>
      </trkpt>
      <trkpt lat="44.16335" lon="5.00435">
        <ele>253</ele>
        <time>2020-01-23T13:19:29Z</time>
      </trkpt>
      <trkpt lat="44.16317" lon="5.00433">
        <ele>255</ele>
        <time>2020-01-23T13:19:54.46Z</time>
      </trkpt>
      <trkpt lat="44.16291" lon="5.00449">
        <ele>258</ele>
        <time>2020-01-23T13:20:33.15Z</time>
      </trkpt>
      <trkpt lat="44.16293" lon="5.00468">
        <ele>260</ele>
        <time>2020-01-23T13:20:51.96Z</time>
      </trkpt>
      <trkpt lat="44.16272" lon="5.00482">
        <ele>262</ele>
        <time>2020-01-23T13:21:17.84Z</time>
      </trkpt>
      <trkpt lat="44.16226" lon="5.00489">
        <ele>260</ele>
        <time>2020-01-23T13:22:09.86Z</time>
      </trkpt>
      <trkpt lat="44.16217" lon="5.00481">
        <ele>259</ele>
        <time>2020-01-23T13:22:21.73Z</time>
      </trkpt>
      <trkpt lat="44.16197" lon="5.00472">
        <ele>257</ele>
        <time>2020-01-23T13:22:45.09Z</time>
      </trkpt>
      <trkpt lat="44.16161" lon="5.00432">
        <ele>256</ele>
        <time>2020-01-23T13:23:38.88Z</time>
      </trkpt>
      <trkpt lat="44.16137" lon="5.00419">
        <ele>259</ele>
        <time>2020-01-23T13:24:18.47Z</time>
      </trkpt>
      <trkpt lat="44.16103" lon="5.00392">
        <ele>265</ele>
        <time>2020-01-23T13:25:29.06Z</time>
      </trkpt>
      <trkpt lat="44.16086" lon="5.00372">
        <ele>270</ele>
        <time>2020-01-23T13:26:09.21Z</time>
      </trkpt>
      <trkpt lat="44.1606" lon="5.00329">
        <ele>278</ele>
        <time>2020-01-23T13:27:22.35Z</time>
      </trkpt>
      <trkpt lat="44.16047" lon="5.00318">
        <ele>281</ele>
        <time>2020-01-23T13:27:46.04Z</time>
      </trkpt>
      <trkpt lat="44.16029" lon="5.0031">
        <ele>284</ele>
        <time>2020-01-23T13:28:12.71Z</time>
      </trkpt>
      <trkpt lat="44.16002" lon="5.00248">
        <ele>288</ele>
        <time>2020-01-23T13:29:10.67Z</time>
      </trkpt>
      <trkpt lat="44.15992" lon="5.00238">
        <ele>288</ele>
        <time>2020-01-23T13:29:24.36Z</time>
      </trkpt>
      <trkpt lat="44.15921" lon="5.00233">
        <ele>282</ele>
        <time>2020-01-23T13:30:48.01Z</time>
      </trkpt>
      <trkpt lat="44.15893" lon="5.00217">
        <ele>278</ele>
        <time>2020-01-23T13:31:23.72Z</time>
      </trkpt>
      <trkpt lat="44.15878" lon="5.00214">
        <ele>276</ele>
        <time>2020-01-23T13:31:41.60Z</time>
      </trkpt>
      <trkpt lat="44.15846" lon="5.0023">
        <ele>274</ele>
        <time>2020-01-23T13:32:19.39Z</time>
      </trkpt>
      <trkpt lat="44.15833" lon="5.00249">
        <ele>274</ele>
        <time>2020-01-23T13:32:40.36Z</time>
      </trkpt>
      <trkpt lat="44.15831" lon="5.00277">
        <ele>276</ele>
        <time>2020-01-23T13:33:06.10Z</time>
      </trkpt>
      <trkpt lat="44.15827" lon="5.00282">
        <ele>276</ele>
        <time>2020-01-23T13:33:13.42Z</time>
      </trkpt>
      <trkpt lat="44.15819" lon="5.00277">
        <ele>277</ele>
        <time>2020-01-23T13:33:25.24Z</time>
      </trkpt>
      <trkpt lat="44.15804" lon="5.00255">
        <ele>280</ele>
        <time>2020-01-23T13:33:55.63Z</time>
      </trkpt>
      <trkpt lat="44.15759" lon="5.00227">
        <ele>285</ele>
        <time>2020-01-23T13:34:59.74Z</time>
      </trkpt>
      <trkpt lat="44.15752" lon="5.00214">
        <ele>286</ele>
        <time>2020-01-23T13:35:13.97Z</time>
      </trkpt>
      <trkpt lat="44.1574" lon="5.00207">
        <ele>287</ele>
        <time>2020-01-23T13:35:29.21Z</time>
      </trkpt>
      <trkpt lat="44.15664" lon="5.00217">
        <ele>288</ele>
        <time>2020-01-23T13:36:54.03Z</time>
      </trkpt>
      <trkpt lat="44.15618" lon="5.00215">
        <ele>286</ele>
        <time>2020-01-23T13:37:45.17Z</time>
      </trkpt>
      <trkpt lat="44.15608" lon="5.00222">
        <ele>286</ele>
        <time>2020-01-23T13:37:57.61Z</time>
      </trkpt>
      <trkpt lat="44.15591" lon="5.00253">
        <ele>284</ele>
        <time>2020-01-23T13:38:28.79Z</time>
      </trkpt>
      <trkpt lat="44.15573" lon="5.00334">
        <ele>282</ele>
        <time>2020-01-23T13:39:36.60Z</time>
      </trkpt>
      <trkpt lat="44.15564" lon="5.00355">
        <ele>282</ele>
        <time>2020-01-23T13:39:56.15Z</time>
      </trkpt>
      <trkpt lat="44.15539" lon="5.00367">
        <ele>281</ele>
        <time>2020-01-23T13:40:25.54Z</time>
      </trkpt>
      <trkpt lat="44.1551" lon="5.00363">
        <ele>281</ele>
        <time>2020-01-23T13:40:57.93Z</time>
      </trkpt>
      <trkpt lat="44.15492" lon="5.00378">
        <ele>281</ele>
        <time>2020-01-23T13:41:21.25Z</time>
      </trkpt>
      <trkpt lat="44.15468" lon="5.00423">
        <ele>281</ele>
        <time>2020-01-23T13:42:06.05Z</time>
      </trkpt>
      <trkpt lat="44.15444" lon="5.00459">
        <ele>281</ele>
        <time>2020-01-23T13:42:45.30Z</time>
      </trkpt>
      <trkpt lat="44.15428" lon="5.00491">
        <ele>281</ele>
        <time>2020-01-23T13:43:16.47Z</time>
      </trkpt>
      <trkpt lat="44.15405" lon="5.00525">
        <ele>281</ele>
        <time>2020-01-23T13:43:55.48Z</time>
      </trkpt>
      <trkpt lat="44.15385" lon="5.00582">
        <ele>283</ele>
        <time>2020-01-23T13:44:51.21Z</time>
      </trkpt>
      <trkpt lat="44.15377" lon="5.00595">
        <ele>284</ele>
        <time>2020-01-23T13:45:06.24Z</time>
      </trkpt>
      <trkpt lat="44.15344" lon="5.00602">
        <ele>286</ele>
        <time>2020-01-23T13:45:49.24Z</time>
      </trkpt>
      <trkpt lat="44.15324" lon="5.00586">
        <ele>289</ele>
        <time>2020-01-23T13:46:28.19Z</time>
      </trkpt>
      <trkpt lat="44.15315" lon="5.00579">
        <ele>290</ele>
        <time>2020-01-23T13:46:45.60Z</time>
      </trkpt>
      <trkpt lat="44.15305" lon="5.00579">
        <ele>292</ele>
        <time>2020-01-23T13:47:02.47Z</time>
      </trkpt>
      <trkpt lat="44.15256" lon="5.00625">
        <ele>303</ele>
        <time>2020-01-23T13:48:50.51Z</time>
      </trkpt>
      <trkpt lat="44.15227" lon="5.00664">
        <ele>311</ele>
        <time>2020-01-23T13:49:57.46Z</time>
      </trkpt>
      <trkpt lat="44.15191" lon="5.0074">
        <ele>320</ele>
        <time>2020-01-23T13:51:30.35Z</time>
      </trkpt>
      <trkpt lat="44.15164" lon="5.00775">
        <ele>323</ele>
        <time>2020-01-23T13:52:17.17Z</time>
      </trkpt>
      <trkpt lat="44.15148" lon="5.00805">
        <ele>325</ele>
        <time>2020-01-23T13:52:52.19Z</time>
      </trkpt>
      <trkpt lat="44.15143" lon="5.00806">
        <ele>326</ele>
        <time>2020-01-23T13:52:59.12Z</time>
      </trkpt>
      <trkpt lat="44.15137" lon="5.00791">
        <ele>327</ele>
        <time>2020-01-23T13:53:16.07Z</time>
      </trkpt>
      <trkpt lat="44.15137" lon="5.0078">
        <ele>328</ele>
        <time>2020-01-23T13:53:27.23Z</time>
      </trkpt>
      <trkpt lat="44.15144" lon="5.00752">
        <ele>331</ele>
        <time>2020-01-23T13:53:59.59Z</time>
      </trkpt>
      <trkpt lat="44.15141" lon="5.00746">
        <ele>331</ele>
        <time>2020-01-23T13:54:07.60Z</time>
      </trkpt>
      <trkpt lat="44.15135" lon="5.00745">
        <ele>332</ele>
        <time>2020-01-23T13:54:16.80Z</time>
      </trkpt>
      <trkpt lat="44.15123" lon="5.00765">
        <ele>335</ele>
        <time>2020-01-23T13:54:45.56Z</time>
      </trkpt>
      <trkpt lat="44.1511" lon="5.00775">
        <ele>337</ele>
        <time>2020-01-23T13:55:06.50Z</time>
      </trkpt>
      <trkpt lat="44.15099" lon="5.00776">
        <ele>338</ele>
        <time>2020-01-23T13:55:21.17Z</time>
      </trkpt>
      <trkpt lat="44.15066" lon="5.0077">
        <ele>341</ele>
        <time>2020-01-23T13:55:58.15Z</time>
      </trkpt>
      <trkpt lat="44.15063" lon="5.0078">
        <ele>341</ele>
        <time>2020-01-23T13:56:06.82Z</time>
      </trkpt>
      <trkpt lat="44.15051" lon="5.00775">
        <ele>341</ele>
        <time>2020-01-23T13:56:20.74Z</time>
      </trkpt>
      <trkpt lat="44.15021" lon="5.00746">
        <ele>338</ele>
        <time>2020-01-23T13:57:03.57Z</time>
      </trkpt>
      <trkpt lat="44.14993" lon="5.00713">
        <ele>334</ele>
        <time>2020-01-23T13:57:48.02Z</time>
      </trkpt>
      <trkpt lat="44.14981" lon="5.00716">
        <ele>332</ele>
        <time>2020-01-23T13:58:02.78Z</time>
      </trkpt>
      <trkpt lat="44.14957" lon="5.00683">
        <ele>328</ele>
        <time>2020-01-23T13:58:41.61Z</time>
      </trkpt>
      <trkpt lat="44.14946" lon="5.00674">
        <ele>327</ele>
        <time>2020-01-23T13:58:56.29Z</time>
      </trkpt>
      <trkpt lat="44.14941" lon="5.00675">
        <ele>327</ele>
        <time>2020-01-23T13:59:02.10Z</time>
      </trkpt>
      <trkpt lat="44.14905" lon="5.00717">
        <ele>324</ele>
        <time>2020-01-23T13:59:54.81Z</time>
      </trkpt>
      <trkpt lat="44.14896" lon="5.00717">
        <ele>323</ele>
        <time>2020-01-23T14:00:04.90Z</time>
      </trkpt>
      <trkpt lat="44.14841" lon="5.00698">
        <ele>320</ele>
        <time>2020-01-23T14:01:08.56Z</time>
      </trkpt>
      <trkpt lat="44.14806" lon="5.00678">
        <ele>317</ele>
        <time>2020-01-23T14:01:51.84Z</time>
      </trkpt>
      <trkpt lat="44.14798" lon="5.00669">
        <ele>316</ele>
        <time>2020-01-23T14:02:03.66Z</time>
      </trkpt>
      <trkpt lat="44.14792" lon="5.00647">
        <ele>315</ele>
        <time>2020-01-23T14:02:22.81Z</time>
      </trkpt>
      <trkpt lat="44.14784" lon="5.0064">
        <ele>314</ele>
        <time>2020-01-23T14:02:33.45Z</time>
      </trkpt>
      <trkpt lat="44.14733" lon="5.00634">
        <ele>311</ele>
        <time>2020-01-23T14:03:30.32Z</time>
      </trkpt>
      <trkpt lat="44.14704" lon="5.00654">
        <ele>312</ele>
        <time>2020-01-23T14:04:08.25Z</time>
      </trkpt>
      <trkpt lat="44.14682" lon="5.00659">
        <ele>312</ele>
        <time>2020-01-23T14:04:34.41Z</time>
      </trkpt>
      <trkpt lat="44.14674" lon="5.00671">
        <ele>313</ele>
        <time>2020-01-23T14:04:48.23Z</time>
      </trkpt>
      <trkpt lat="44.14662" lon="5.00709">
        <ele>314</ele>
        <time>2020-01-23T14:05:23.51Z</time>
      </trkpt>
      <trkpt lat="44.14656" lon="5.00746">
        <ele>315</ele>
        <time>2020-01-23T14:05:54.61Z</time>
      </trkpt>
      <trkpt lat="44.14646" lon="5.00773">
        <ele>315</ele>
        <time>2020-01-23T14:06:19.50Z</time>
      </trkpt>
      <trkpt lat="44.14627" lon="5.00793">
        <ele>315</ele>
        <time>2020-01-23T14:06:45.99Z</time>
      </trkpt>
      <trkpt lat="44.14613" lon="5.00814">
        <ele>315</ele>
        <time>2020-01-23T14:07:09.60Z</time>
      </trkpt>
      <trkpt lat="44.1461" lon="5.00823">
        <ele>315</ele>
        <time>2020-01-23T14:07:17.84Z</time>
      </trkpt>
      <trkpt lat="44.14611" lon="5.00842">
        <ele>315</ele>
        <time>2020-01-23T14:07:33.68Z</time>
      </trkpt>
      <trkpt lat="44.14627" lon="5.00909">
        <ele>317</ele>
        <time>2020-01-23T14:08:35.09Z</time>
      </trkpt>
      <trkpt lat="44.14626" lon="5.00924">
        <ele>318</ele>
        <time>2020-01-23T14:08:48.21Z</time>
      </trkpt>
      <trkpt lat="44.14617" lon="5.0095">
        <ele>319</ele>
        <time>2020-01-23T14:09:13.72Z</time>
      </trkpt>
      <trkpt lat="44.14603" lon="5.00968">
        <ele>320</ele>
        <time>2020-01-23T14:09:35.82Z</time>
      </trkpt>
      <trkpt lat="44.14595" lon="5.0099">
        <ele>321</ele>
        <time>2020-01-23T14:09:56.20Z</time>
      </trkpt>
      <trkpt lat="44.14551" lon="5.01065">
        <ele>321</ele>
        <time>2020-01-23T14:11:13.60Z</time>
      </trkpt>
      <trkpt lat="44.14474" lon="5.01134">
        <ele>314</ele>
        <time>2020-01-23T14:12:59.79Z</time>
      </trkpt>
      <trkpt lat="44.14451" lon="5.0114">
        <ele>311</ele>
        <time>2020-01-23T14:13:27.73Z</time>
      </trkpt>
      <trkpt lat="44.1442" lon="5.01136">
        <ele>308</ele>
        <time>2020-01-23T14:14:03.96Z</time>
      </trkpt>
      <trkpt lat="44.14375" lon="5.01152">
        <ele>304</ele>
        <time>2020-01-23T14:14:57.31Z</time>
      </trkpt>
      <trkpt lat="44.14356" lon="5.01153">
        <ele>303</ele>
        <time>2020-01-23T14:15:19.08Z</time>
      </trkpt>
      <trkpt lat="44.14348" lon="5.01146">
        <ele>302</ele>
        <time>2020-01-23T14:15:29.90Z</time>
      </trkpt>
      <trkpt lat="44.14341" lon="5.01128">
        <ele>301</ele>
        <time>2020-01-23T14:15:47.02Z</time>
      </trkpt>
      <trkpt lat="44.14344" lon="5.01117">
        <ele>300</ele>
        <time>2020-01-23T14:15:56.82Z</time>
      </trkpt>
      <trkpt lat="44.14362" lon="5.01096">
        <ele>298</ele>
        <time>2020-01-23T14:16:24.28Z</time>
      </trkpt>
      <trkpt lat="44.14363" lon="5.01089">
        <ele>297</ele>
        <time>2020-01-23T14:16:30.28Z</time>
      </trkpt>
      <trkpt lat="44.14343" lon="5.01068">
        <ele>295</ele>
        <time>2020-01-23T14:16:58.51Z</time>
      </trkpt>
      <trkpt lat="44.14336" lon="5.01066">
        <ele>295</ele>
        <time>2020-01-23T14:17:06.55Z</time>
      </trkpt>
      <trkpt lat="44.14311" lon="5.01087">
        <ele>293</ele>
        <time>2020-01-23T14:17:39.68Z</time>
      </trkpt>
      <trkpt lat="44.14284" lon="5.01131">
        <ele>290</ele>
        <time>2020-01-23T14:18:27.76Z</time>
      </trkpt>
      <trkpt lat="44.14203" lon="5.01181">
        <ele>282</ele>
        <time>2020-01-23T14:20:11.16Z</time>
      </trkpt>
      <trkpt lat="44.14194" lon="5.01183">
        <ele>281</ele>
        <time>2020-01-23T14:20:21.90Z</time>
      </trkpt>
      <trkpt lat="44.14173" lon="5.01175">
        <ele>279</ele>
        <time>2020-01-23T14:20:48.56Z</time>
      </trkpt>
      <trkpt lat="44.14162" lon="5.0115">
        <ele>276</ele>
        <time>2020-01-23T14:21:14.47Z</time>
      </trkpt>
      <trkpt lat="44.14159" lon="5.01105">
        <ele>271</ele>
        <time>2020-01-23T14:21:58.42Z</time>
      </trkpt>
      <trkpt lat="44.1417" lon="5.01101">
        <ele>269</ele>
        <time>2020-01-23T14:22:13.78Z</time>
      </trkpt>
      <trkpt lat="44.14176" lon="5.01091">
        <ele>267</ele>
        <time>2020-01-23T14:22:26.42Z</time>
      </trkpt>
      <trkpt lat="44.14166" lon="5.01073">
        <ele>264</ele>
        <time>2020-01-23T14:22:48.76Z</time>
      </trkpt>
      <trkpt lat="44.14151" lon="5.0106">
        <ele>261</ele>
        <time>2020-01-23T14:23:13.61Z</time>
      </trkpt>
      <trkpt lat="44.14138" lon="5.01055">
        <ele>259</ele>
        <time>2020-01-23T14:23:32.13Z</time>
      </trkpt>
      <trkpt lat="44.14121" lon="5.01058">
        <ele>255</ele>
        <time>2020-01-23T14:23:55.85Z</time>
      </trkpt>
      <trkpt lat="44.14098" lon="5.01071">
        <ele>251</ele>
        <time>2020-01-23T14:24:26.67Z</time>
      </trkpt>
      <trkpt lat="44.14024" lon="5.0108">
        <ele>241</ele>
        <time>2020-01-23T14:25:56.95Z</time>
      </trkpt>
      <trkpt lat="44.14019" lon="5.01077">
        <ele>240</ele>
        <time>2020-01-23T14:26:03.57Z</time>
      </trkpt>
      <trkpt lat="44.14017" lon="5.01068">
        <ele>239</ele>
        <time>2020-01-23T14:26:11.81Z</time>
      </trkpt>
      <trkpt lat="44.14019" lon="5.01064">
        <ele>239</ele>
        <time>2020-01-23T14:26:16.07Z</time>
      </trkpt>
      <trkpt lat="44.14039" lon="5.01049">
        <ele>237</ele>
        <time>2020-01-23T14:26:42.42Z</time>
      </trkpt>
      <trkpt lat="44.14086" lon="5.01003">
        <ele>232</ele>
        <time>2020-01-23T14:27:50.98Z</time>
      </trkpt>
      <trkpt lat="44.14088" lon="5.00996">
        <ele>231</ele>
        <time>2020-01-23T14:27:57.44Z</time>
      </trkpt>
      <trkpt lat="44.14085" lon="5.00985">
        <ele>230</ele>
        <time>2020-01-23T14:28:07.54Z</time>
      </trkpt>
      <trkpt lat="44.14057" lon="5.00972">
        <ele>226</ele>
        <time>2020-01-23T14:28:45.43Z</time>
      </trkpt>
      <trkpt lat="44.14011" lon="5.00918">
        <ele>216</ele>
        <time>2020-01-23T14:30:06.89Z</time>
      </trkpt>
      <trkpt lat="44.13985" lon="5.0091">
        <ele>211</ele>
        <time>2020-01-23T14:30:43.18Z</time>
      </trkpt>
      <trkpt lat="44.13966" lon="5.00888">
        <ele>207</ele>
        <time>2020-01-23T14:31:14.43Z</time>
      </trkpt>
      <trkpt lat="44.13953" lon="5.0088">
        <ele>205</ele>
        <time>2020-01-23T14:31:32.14Z</time>
      </trkpt>
      <trkpt lat="44.13939" lon="5.00859">
        <ele>202</ele>
        <time>2020-01-23T14:31:57.57Z</time>
      </trkpt>
      <trkpt lat="44.13929" lon="5.00829">
        <ele>199</ele>
        <time>2020-01-23T14:32:25.95Z</time>
      </trkpt>
      <trkpt lat="44.13918" lon="5.00825">
        <ele>198</ele>
        <time>2020-01-23T14:32:39.33Z</time>
      </trkpt>
      <trkpt lat="44.13905" lon="5.00804">
        <ele>196</ele>
        <time>2020-01-23T14:33:02.45Z</time>
      </trkpt>
      <trkpt lat="44.13884" lon="5.00783">
        <ele>194</ele>
        <time>2020-01-23T14:33:32.05Z</time>
      </trkpt>
      <trkpt lat="44.13867" lon="5.00771">
        <ele>193</ele>
        <time>2020-01-23T14:33:53.55Z</time>
      </trkpt>
      <trkpt lat="44.1386" lon="5.0077">
        <ele>192</ele>
        <time>2020-01-23T14:34:01.44Z</time>
      </trkpt>
      <trkpt lat="44.13827" lon="5.00797">
        <ele>190</ele>
        <time>2020-01-23T14:34:44Z</time>
      </trkpt>
      <trkpt lat="44.13783" lon="5.00819">
        <ele>188</ele>
        <time>2020-01-23T14:35:35.96Z</time>
      </trkpt>
      <trkpt lat="44.13767" lon="5.00822">
        <ele>187</ele>
        <time>2020-01-23T14:35:53.90Z</time>
      </trkpt>
      <trkpt lat="44.13747" lon="5.00813">
        <ele>186</ele>
        <time>2020-01-23T14:36:17.34Z</time>
      </trkpt>
      <trkpt lat="44.13742" lon="5.00806">
        <ele>186</ele>
        <time>2020-01-23T14:36:25.25Z</time>
      </trkpt>
      <trkpt lat="44.13709" lon="5.00738">
        <ele>182</ele>
        <time>2020-01-23T14:37:31.01Z</time>
      </trkpt>
      <trkpt lat="44.13698" lon="5.00722">
        <ele>181</ele>
        <time>2020-01-23T14:37:48.75Z</time>
      </trkpt>
      <trkpt lat="44.13668" lon="5.00725">
        <ele>180</ele>
        <time>2020-01-23T14:38:22.17Z</time>
      </trkpt>
      <trkpt lat="44.13665" lon="5.00735">
        <ele>180</ele>
        <time>2020-01-23T14:38:30.84Z</time>
      </trkpt>
      <trkpt lat="44.13659" lon="5.0074">
        <ele>180</ele>
        <time>2020-01-23T14:38:38.61Z</time>
      </trkpt>
      <trkpt lat="44.1365" lon="5.0074">
        <ele>180</ele>
        <time>2020-01-23T14:38:48.61Z</time>
      </trkpt>
      <trkpt lat="44.13643" lon="5.00724">
        <ele>179</ele>
        <time>2020-01-23T14:39:03.59Z</time>
      </trkpt>
      <trkpt lat="44.13638" lon="5.0072">
        <ele>179</ele>
        <time>2020-01-23T14:39:10Z</time>
      </trkpt>
      <trkpt lat="44.13615" lon="5.00724">
        <ele>179</ele>
        <time>2020-01-23T14:39:35.76Z</time>
      </trkpt>
      <trkpt lat="44.13612" lon="5.00757">
        <ele>179</ele>
        <time>2020-01-23T14:40:02.38Z</time>
      </trkpt>
      <trkpt lat="44.13602" lon="5.0081">
        <ele>178</ele>
        <time>2020-01-23T14:40:46.22Z</time>
      </trkpt>
      <trkpt lat="44.13598" lon="5.00848">
        <ele>178</ele>
        <time>2020-01-23T14:41:16.95Z</time>
      </trkpt>
      <trkpt lat="44.13578" lon="5.00954">
        <ele>178</ele>
        <time>2020-01-23T14:42:46.18Z</time>
      </trkpt>
      <trkpt lat="44.13559" lon="5.00973">
        <ele>179</ele>
        <time>2020-01-23T14:43:14.94Z</time>
      </trkpt>
      <trkpt lat="44.13529" lon="5.011">
        <ele>185</ele>
        <time>2020-01-23T14:45:16.47Z</time>
      </trkpt>
      <trkpt lat="44.13515" lon="5.01277">
        <ele>196</ele>
        <time>2020-01-23T14:47:59.06Z</time>
      </trkpt>
      <trkpt lat="44.13504" lon="5.01327">
        <ele>198</ele>
        <time>2020-01-23T14:48:43.87Z</time>
      </trkpt>
      <trkpt lat="44.13503" lon="5.01344">
        <ele>198</ele>
        <time>2020-01-23T14:48:58.49Z</time>
      </trkpt>
      <trkpt lat="44.1351" lon="5.01379">
        <ele>199</ele>
        <time>2020-01-23T14:49:28.89Z</time>
      </trkpt>
      <trkpt lat="44.13566" lon="5.0148">
        <ele>201</ele>
        <time>2020-01-23T14:51:15.04Z</time>
      </trkpt>
      <trkpt lat="44.13607" lon="5.01482">
        <ele>202</ele>
        <time>2020-01-23T14:52:02.76Z</time>
      </trkpt>
      <trkpt lat="44.13626" lon="5.01474">
        <ele>203</ele>
        <time>2020-01-23T14:52:25.67Z</time>
      </trkpt>
      <trkpt lat="44.13642" lon="5.01473">
        <ele>203</ele>
        <time>2020-01-23T14:52:44.41Z</time>
      </trkpt>
      <trkpt lat="44.13652" lon="5.0149">
        <ele>203</ele>
        <time>2020-01-23T14:53:02.47Z</time>
      </trkpt>
      <trkpt lat="44.13657" lon="5.01512">
        <ele>204</ele>
        <time>2020-01-23T14:53:22.05Z</time>
      </trkpt>
      <trkpt lat="44.13669" lon="5.01525">
        <ele>204</ele>
        <time>2020-01-23T14:53:40.21Z</time>
      </trkpt>
      <trkpt lat="44.1371" lon="5.01532">
        <ele>206</ele>
        <time>2020-01-23T14:54:32.29Z</time>
      </trkpt>
      <trkpt lat="44.13729" lon="5.01529">
        <ele>207</ele>
        <time>2020-01-23T14:54:56.40Z</time>
      </trkpt>
      <trkpt lat="44.13774" lon="5.01513">
        <ele>212</ele>
        <time>2020-01-23T14:56:00.45Z</time>
      </trkpt>
      <trkpt lat="44.13882" lon="5.0151">
        <ele>224</ele>
        <time>2020-01-23T14:58:26.93Z</time>
      </trkpt>
      <trkpt lat="44.13923" lon="5.01528">
        <ele>228</ele>
        <time>2020-01-23T14:59:21.53Z</time>
      </trkpt>
      <trkpt lat="44.13941" lon="5.01528">
        <ele>229</ele>
        <time>2020-01-23T14:59:44.38Z</time>
      </trkpt>
      <trkpt lat="44.14003" lon="5.015">
        <ele>234</ele>
        <time>2020-01-23T15:01:08.34Z</time>
      </trkpt>
      <trkpt lat="44.14028" lon="5.01494">
        <ele>237</ele>
        <time>2020-01-23T15:01:39.76Z</time>
      </trkpt>
      <trkpt lat="44.14108" lon="5.01456">
        <ele>241</ele>
        <time>2020-01-23T15:03:16.63Z</time>
      </trkpt>
      <trkpt lat="44.14124" lon="5.01453">
        <ele>240</ele>
        <time>2020-01-23T15:03:34.57Z</time>
      </trkpt>
      <trkpt lat="44.1413" lon="5.01455">
        <ele>240</ele>
        <time>2020-01-23T15:03:41.43Z</time>
      </trkpt>
      <trkpt lat="44.14128" lon="5.01467">
        <ele>239</ele>
        <time>2020-01-23T15:03:51.67Z</time>
      </trkpt>
      <trkpt lat="44.14104" lon="5.01488">
        <ele>236</ele>
        <time>2020-01-23T15:04:24.49Z</time>
      </trkpt>
      <trkpt lat="44.14095" lon="5.01508">
        <ele>235</ele>
        <time>2020-01-23T15:04:44.15Z</time>
      </trkpt>
      <trkpt lat="44.14085" lon="5.01539">
        <ele>233</ele>
        <time>2020-01-23T15:05:11.52Z</time>
      </trkpt>
      <trkpt lat="44.14082" lon="5.01561">
        <ele>232</ele>
        <time>2020-01-23T15:05:29.44Z</time>
      </trkpt>
      <trkpt lat="44.14076" lon="5.0157">
        <ele>232</ele>
        <time>2020-01-23T15:05:39.25Z</time>
      </trkpt>
      <trkpt lat="44.14035" lon="5.01585">
        <ele>233</ele>
        <time>2020-01-23T15:06:30.94Z</time>
      </trkpt>
      <trkpt lat="44.14009" lon="5.0161">
        <ele>236</ele>
        <time>2020-01-23T15:07:15.96Z</time>
      </trkpt>
      <trkpt lat="44.13944" lon="5.01646">
        <ele>245</ele>
        <time>2020-01-23T15:08:54.46Z</time>
      </trkpt>
      <trkpt lat="44.13894" lon="5.01663">
        <ele>250</ele>
        <time>2020-01-23T15:10:00.92Z</time>
      </trkpt>
      <trkpt lat="44.13842" lon="5.01704">
        <ele>255</ele>
        <time>2020-01-23T15:11:15.05Z</time>
      </trkpt>
      <trkpt lat="44.1382" lon="5.0171">
        <ele>256</ele>
        <time>2020-01-23T15:11:42.84Z</time>
      </trkpt>
      <trkpt lat="44.13795" lon="5.01697">
        <ele>257</ele>
        <time>2020-01-23T15:12:14.58Z</time>
      </trkpt>
      <trkpt lat="44.13785" lon="5.01696">
        <ele>258</ele>
        <time>2020-01-23T15:12:26.73Z</time>
      </trkpt>
      <trkpt lat="44.13771" lon="5.01702">
        <ele>258</ele>
        <time>2020-01-23T15:12:44.59Z</time>
      </trkpt>
      <trkpt lat="44.13712" lon="5.01749">
        <ele>262</ele>
        <time>2020-01-23T15:14:08.42Z</time>
      </trkpt>
      <trkpt lat="44.13702" lon="5.01763">
        <ele>263</ele>
        <time>2020-01-23T15:14:25.92Z</time>
      </trkpt>
      <trkpt lat="44.13692" lon="5.01807">
        <ele>265</ele>
        <time>2020-01-23T15:15:06.40Z</time>
      </trkpt>
      <trkpt lat="44.13682" lon="5.01824">
        <ele>266</ele>
        <time>2020-01-23T15:15:25.65Z</time>
      </trkpt>
      <trkpt lat="44.13647" lon="5.01862">
        <ele>268</ele>
        <time>2020-01-23T15:16:15.94Z</time>
      </trkpt>
      <trkpt lat="44.13644" lon="5.01873">
        <ele>268</ele>
        <time>2020-01-23T15:16:25.53Z</time>
      </trkpt>
      <trkpt lat="44.13645" lon="5.01886">
        <ele>268</ele>
        <time>2020-01-23T15:16:36.19Z</time>
      </trkpt>
      <trkpt lat="44.13662" lon="5.01927">
        <ele>267</ele>
        <time>2020-01-23T15:17:14.04Z</time>
      </trkpt>
      <trkpt lat="44.13666" lon="5.01962">
        <ele>267</ele>
        <time>2020-01-23T15:17:42.40Z</time>
      </trkpt>
      <trkpt lat="44.1367" lon="5.01974">
        <ele>267</ele>
        <time>2020-01-23T15:17:52.98Z</time>
      </trkpt>
      <trkpt lat="44.13681" lon="5.01981">
        <ele>267</ele>
        <time>2020-01-23T15:18:07.57Z</time>
      </trkpt>
      <trkpt lat="44.13693" lon="5.01983">
        <ele>267</ele>
        <time>2020-01-23T15:18:22.56Z</time>
      </trkpt>
      <trkpt lat="44.1376" lon="5.01964">
        <ele>273</ele>
        <time>2020-01-23T15:19:50.76Z</time>
      </trkpt>
      <trkpt lat="44.13847" lon="5.01942">
        <ele>281</ele>
        <time>2020-01-23T15:21:41.34Z</time>
      </trkpt>
      <trkpt lat="44.1393" lon="5.01926">
        <ele>285</ele>
        <time>2020-01-23T15:23:25.13Z</time>
      </trkpt>
      <trkpt lat="44.13956" lon="5.01926">
        <ele>288</ele>
        <time>2020-01-23T15:24:02Z</time>
      </trkpt>
      <trkpt lat="44.13973" lon="5.01932">
        <ele>290</ele>
        <time>2020-01-23T15:24:26.88Z</time>
      </trkpt>
      <trkpt lat="44.14017" lon="5.01966">
        <ele>296</ele>
        <time>2020-01-23T15:25:40.46Z</time>
      </trkpt>
      <trkpt lat="44.1407" lon="5.01978">
        <ele>303</ele>
        <time>2020-01-23T15:26:56.81Z</time>
      </trkpt>
      <trkpt lat="44.14098" lon="5.01997">
        <ele>306</ele>
        <time>2020-01-23T15:27:36.93Z</time>
      </trkpt>
      <trkpt lat="44.14109" lon="5.01999">
        <ele>307</ele>
        <time>2020-01-23T15:27:51.21Z</time>
      </trkpt>
      <trkpt lat="44.14146" lon="5.01993">
        <ele>310</ele>
        <time>2020-01-23T15:28:39.62Z</time>
      </trkpt>
      <trkpt lat="44.14182" lon="5.02005">
        <ele>314</ele>
        <time>2020-01-23T15:29:32.16Z</time>
      </trkpt>
      <trkpt lat="44.14195" lon="5.02016">
        <ele>316</ele>
        <time>2020-01-23T15:29:54.52Z</time>
      </trkpt>
      <trkpt lat="44.14206" lon="5.02032">
        <ele>318</ele>
        <time>2020-01-23T15:30:18.48Z</time>
      </trkpt>
      <trkpt lat="44.14253" lon="5.02112">
        <ele>328</ele>
        <time>2020-01-23T15:32:04.46Z</time>
      </trkpt>
      <trkpt lat="44.14356" lon="5.02218">
        <ele>342</ele>
        <time>2020-01-23T15:35:01.59Z</time>
      </trkpt>
      <trkpt lat="44.1436" lon="5.02229">
        <ele>343</ele>
        <time>2020-01-23T15:35:13.85Z</time>
      </trkpt>
      <trkpt lat="44.14352" lon="5.02276">
        <ele>347</ele>
        <time>2020-01-23T15:36:03.43Z</time>
      </trkpt>
      <trkpt lat="44.14357" lon="5.02289">
        <ele>348</ele>
        <time>2020-01-23T15:36:18.06Z</time>
      </trkpt>
      <trkpt lat="44.14379" lon="5.02292">
        <ele>351</ele>
        <time>2020-01-23T15:36:48.35Z</time>
      </trkpt>
      <trkpt lat="44.14464" lon="5.02266">
        <ele>360</ele>
        <time>2020-01-23T15:38:44.04Z</time>
      </trkpt>
      <trkpt lat="44.14482" lon="5.02277">
        <ele>362</ele>
        <time>2020-01-23T15:39:09.85Z</time>
      </trkpt>
      <trkpt lat="44.14491" lon="5.02288">
        <ele>363</ele>
        <time>2020-01-23T15:39:25.33Z</time>
      </trkpt>
      <trkpt lat="44.14503" lon="5.02317">
        <ele>365</ele>
        <time>2020-01-23T15:39:55.64Z</time>
      </trkpt>
      <trkpt lat="44.14507" lon="5.02322">
        <ele>365</ele>
        <time>2020-01-23T15:40:02.42Z</time>
      </trkpt>
      <trkpt lat="44.14513" lon="5.02323">
        <ele>366</ele>
        <time>2020-01-23T15:40:10.29Z</time>
      </trkpt>
      <trkpt lat="44.14518" lon="5.02319">
        <ele>366</ele>
        <time>2020-01-23T15:40:17.81Z</time>
      </trkpt>
      <trkpt lat="44.14522" lon="5.02302">
        <ele>367</ele>
        <time>2020-01-23T15:40:35.25Z</time>
      </trkpt>
      <trkpt lat="44.1452" lon="5.02218">
        <ele>374</ele>
        <time>2020-01-23T15:41:59.18Z</time>
      </trkpt>
      <trkpt lat="44.14537" lon="5.02157">
        <ele>379</ele>
        <time>2020-01-23T15:42:59.81Z</time>
      </trkpt>
      <trkpt lat="44.14545" lon="5.02147">
        <ele>380</ele>
        <time>2020-01-23T15:43:13.67Z</time>
      </trkpt>
      <trkpt lat="44.14555" lon="5.02141">
        <ele>381</ele>
        <time>2020-01-23T15:43:27.63Z</time>
      </trkpt>
      <trkpt lat="44.14577" lon="5.02143">
        <ele>382</ele>
        <time>2020-01-23T15:43:54.37Z</time>
      </trkpt>
      <trkpt lat="44.14592" lon="5.02141">
        <ele>383</ele>
        <time>2020-01-23T15:44:11.51Z</time>
      </trkpt>
      <trkpt lat="44.14602" lon="5.02135">
        <ele>383</ele>
        <time>2020-01-23T15:44:23.61Z</time>
      </trkpt>
      <trkpt lat="44.14618" lon="5.02103">
        <ele>382</ele>
        <time>2020-01-23T15:44:54.78Z</time>
      </trkpt>
      <trkpt lat="44.14618" lon="5.0209">
        <ele>382</ele>
        <time>2020-01-23T15:45:05.18Z</time>
      </trkpt>
      <trkpt lat="44.14604" lon="5.02047">
        <ele>380</ele>
        <time>2020-01-23T15:45:44.47Z</time>
      </trkpt>
      <trkpt lat="44.14602" lon="5.02031">
        <ele>379</ele>
        <time>2020-01-23T15:45:57.99Z</time>
      </trkpt>
      <trkpt lat="44.14595" lon="5.01932">
        <ele>372</ele>
        <time>2020-01-23T15:47:20.13Z</time>
      </trkpt>
      <trkpt lat="44.14591" lon="5.01913">
        <ele>371</ele>
        <time>2020-01-23T15:47:36.47Z</time>
      </trkpt>
      <trkpt lat="44.14573" lon="5.01883">
        <ele>370</ele>
        <time>2020-01-23T15:48:07.71Z</time>
      </trkpt>
      <trkpt lat="44.14569" lon="5.0186">
        <ele>371</ele>
        <time>2020-01-23T15:48:28.80Z</time>
      </trkpt>
      <trkpt lat="44.14572" lon="5.01853">
        <ele>371</ele>
        <time>2020-01-23T15:48:36.46Z</time>
      </trkpt>
      <trkpt lat="44.14578" lon="5.01849">
        <ele>372</ele>
        <time>2020-01-23T15:48:45.15Z</time>
      </trkpt>
      <trkpt lat="44.14629" lon="5.01829">
        <ele>378</ele>
        <time>2020-01-23T15:49:53.88Z</time>
      </trkpt>
      <trkpt lat="44.1467" lon="5.01807">
        <ele>381</ele>
        <time>2020-01-23T15:50:43.82Z</time>
      </trkpt>
      <trkpt lat="44.1468" lon="5.01794">
        <ele>381</ele>
        <time>2020-01-23T15:50:59.05Z</time>
      </trkpt>
      <trkpt lat="44.14689" lon="5.01766">
        <ele>379</ele>
        <time>2020-01-23T15:51:25.47Z</time>
      </trkpt>
      <trkpt lat="44.14692" lon="5.01679">
        <ele>370</ele>
        <time>2020-01-23T15:52:35.15Z</time>
      </trkpt>
      <trkpt lat="44.14722" lon="5.01563">
        <ele>374</ele>
        <time>2020-01-23T15:54:45.43Z</time>
      </trkpt>
      <trkpt lat="44.14726" lon="5.01558">
        <ele>375</ele>
        <time>2020-01-23T15:54:53.32Z</time>
      </trkpt>
      <trkpt lat="44.14736" lon="5.0155">
        <ele>377</ele>
        <time>2020-01-23T15:55:10.26Z</time>
      </trkpt>
      <trkpt lat="44.14804" lon="5.01536">
        <ele>392</ele>
        <time>2020-01-23T15:57:12.31Z</time>
      </trkpt>
      <trkpt lat="44.14826" lon="5.01535">
        <ele>395</ele>
        <time>2020-01-23T15:57:49.30Z</time>
      </trkpt>
      <trkpt lat="44.14845" lon="5.0154">
        <ele>397</ele>
        <time>2020-01-23T15:58:14.38Z</time>
      </trkpt>
      <trkpt lat="44.14861" lon="5.0155">
        <ele>398</ele>
        <time>2020-01-23T15:58:36.75Z</time>
      </trkpt>
      <trkpt lat="44.14874" lon="5.01564">
        <ele>399</ele>
        <time>2020-01-23T15:58:57.09Z</time>
      </trkpt>
      <trkpt lat="44.14887" lon="5.01585">
        <ele>401</ele>
        <time>2020-01-23T15:59:21.82Z</time>
      </trkpt>
      <trkpt lat="44.14895" lon="5.01619">
        <ele>402</ele>
        <time>2020-01-23T15:59:55.45Z</time>
      </trkpt>
      <trkpt lat="44.149" lon="5.01626">
        <ele>403</ele>
        <time>2020-01-23T16:00:04.73Z</time>
      </trkpt>
      <trkpt lat="44.14912" lon="5.01633">
        <ele>404</ele>
        <time>2020-01-23T16:00:21.72Z</time>
      </trkpt>
      <trkpt lat="44.14968" lon="5.0165">
        <ele>411</ele>
        <time>2020-01-23T16:01:45.42Z</time>
      </trkpt>
      <trkpt lat="44.15008" lon="5.01684">
        <ele>417</ele>
        <time>2020-01-23T16:02:59.60Z</time>
      </trkpt>
      <trkpt lat="44.15129" lon="5.01809">
        <ele>440</ele>
        <time>2020-01-23T16:06:52.97Z</time>
      </trkpt>
      <trkpt lat="44.1519" lon="5.01916">
        <ele>452</ele>
        <time>2020-01-23T16:08:54.15Z</time>
      </trkpt>
      <trkpt lat="44.15209" lon="5.01979">
        <ele>449</ele>
        <time>2020-01-23T16:09:49.62Z</time>
      </trkpt>
      <trkpt lat="44.15217" lon="5.01987">
        <ele>449</ele>
        <time>2020-01-23T16:10:00.74Z</time>
      </trkpt>
      <trkpt lat="44.15248" lon="5.01989">
        <ele>446</ele>
        <time>2020-01-23T16:10:36.08Z</time>
      </trkpt>
      <trkpt lat="44.15256" lon="5.01994">
        <ele>445</ele>
        <time>2020-01-23T16:10:46.07Z</time>
      </trkpt>
      <trkpt lat="44.15265" lon="5.01993">
        <ele>444</ele>
        <time>2020-01-23T16:10:56.35Z</time>
      </trkpt>
      <trkpt lat="44.15288" lon="5.01961">
        <ele>443</ele>
        <time>2020-01-23T16:11:32.52Z</time>
      </trkpt>
      <trkpt lat="44.15298" lon="5.01934">
        <ele>443</ele>
        <time>2020-01-23T16:11:56.81Z</time>
      </trkpt>
      <trkpt lat="44.15304" lon="5.01908">
        <ele>443</ele>
        <time>2020-01-23T16:12:18.65Z</time>
      </trkpt>
      <trkpt lat="44.15307" lon="5.01876">
        <ele>443</ele>
        <time>2020-01-23T16:12:44.47Z</time>
      </trkpt>
      <trkpt lat="44.15305" lon="5.01852">
        <ele>442</ele>
        <time>2020-01-23T16:13:03.80Z</time>
      </trkpt>
      <trkpt lat="44.15289" lon="5.01782">
        <ele>440</ele>
        <time>2020-01-23T16:14:02.55Z</time>
      </trkpt>
      <trkpt lat="44.15283" lon="5.01723">
        <ele>437</ele>
        <time>2020-01-23T16:14:51.93Z</time>
      </trkpt>
      <trkpt lat="44.15255" lon="5.0162">
        <ele>430</ele>
        <time>2020-01-23T16:16:20.01Z</time>
      </trkpt>
      <trkpt lat="44.15221" lon="5.0146">
        <ele>426</ele>
        <time>2020-01-23T16:18:33.47Z</time>
      </trkpt>
      <trkpt lat="44.15209" lon="5.01381">
        <ele>427</ele>
        <time>2020-01-23T16:19:39.48Z</time>
      </trkpt>
      <trkpt lat="44.15207" lon="5.01348">
        <ele>427</ele>
        <time>2020-01-23T16:20:06.64Z</time>
      </trkpt>
      <trkpt lat="44.1521" lon="5.01281">
        <ele>428</ele>
        <time>2020-01-23T16:21:02.28Z</time>
      </trkpt>
      <trkpt lat="44.15214" lon="5.01256">
        <ele>429</ele>
        <time>2020-01-23T16:21:23.51Z</time>
      </trkpt>
      <trkpt lat="44.15232" lon="5.01218">
        <ele>429</ele>
        <time>2020-01-23T16:21:59.90Z</time>
      </trkpt>
      <trkpt lat="44.15267" lon="5.01171">
        <ele>429</ele>
        <time>2020-01-23T16:22:54Z</time>
      </trkpt>
      <trkpt lat="44.15302" lon="5.01141">
        <ele>428</ele>
        <time>2020-01-23T16:23:39.95Z</time>
      </trkpt>
      <trkpt lat="44.15378" lon="5.01131">
        <ele>422</ele>
        <time>2020-01-23T16:25:10.36Z</time>
      </trkpt>
      <trkpt lat="44.15416" lon="5.01117">
        <ele>416</ele>
        <time>2020-01-23T16:26:01.67Z</time>
      </trkpt>
      <trkpt lat="44.15437" lon="5.01105">
        <ele>412</ele>
        <time>2020-01-23T16:26:30.99Z</time>
      </trkpt>
      <trkpt lat="44.15461" lon="5.01071">
        <ele>407</ele>
        <time>2020-01-23T16:27:11.18Z</time>
      </trkpt>
      <trkpt lat="44.15469" lon="5.01063">
        <ele>406</ele>
        <time>2020-01-23T16:27:22.74Z</time>
      </trkpt>
      <trkpt lat="44.15497" lon="5.01053">
        <ele>405</ele>
        <time>2020-01-23T16:27:57.28Z</time>
      </trkpt>
      <trkpt lat="44.15513" lon="5.01039">
        <ele>406</ele>
        <time>2020-01-23T16:28:19.87Z</time>
      </trkpt>
      <trkpt lat="44.15536" lon="5.0103">
        <ele>409</ele>
        <time>2020-01-23T16:28:59.60Z</time>
      </trkpt>
      <trkpt lat="44.15586" lon="5.0102">
        <ele>418</ele>
        <time>2020-01-23T16:30:28.24Z</time>
      </trkpt>
      <trkpt lat="44.15619" lon="5.0103">
        <ele>424</ele>
        <time>2020-01-23T16:31:27.63Z</time>
      </trkpt>
      <trkpt lat="44.15633" lon="5.0104">
        <ele>427</ele>
        <time>2020-01-23T16:31:55.31Z</time>
      </trkpt>
      <trkpt lat="44.15655" lon="5.01066">
        <ele>432</ele>
        <time>2020-01-23T16:32:35.93Z</time>
      </trkpt>
      <trkpt lat="44.15705" lon="5.01107">
        <ele>437</ele>
        <time>2020-01-23T16:33:40.45Z</time>
      </trkpt>
      <trkpt lat="44.15712" lon="5.01117">
        <ele>437</ele>
        <time>2020-01-23T16:33:51.60Z</time>
      </trkpt>
      <trkpt lat="44.15705" lon="5.01107">
        <ele>437</ele>
        <time>2020-01-23T16:34:02.76Z</time>
      </trkpt>
      <trkpt lat="44.15655" lon="5.01066">
        <ele>431</ele>
        <time>2020-01-23T16:35:12.52Z</time>
      </trkpt>
      <trkpt lat="44.15633" lon="5.0104">
        <ele>427</ele>
        <time>2020-01-23T16:35:48.33Z</time>
      </trkpt>
      <trkpt lat="44.15619" lon="5.0103">
        <ele>425</ele>
        <time>2020-01-23T16:36:07.84Z</time>
      </trkpt>
      <trkpt lat="44.15586" lon="5.0102">
        <ele>420</ele>
        <time>2020-01-23T16:36:48.64Z</time>
      </trkpt>
      <trkpt lat="44.15591" lon="5.01012">
        <ele>420</ele>
        <time>2020-01-23T16:36:57.85Z</time>
      </trkpt>
      <trkpt lat="44.15616" lon="5.01004">
        <ele>417</ele>
        <time>2020-01-23T16:37:28.81Z</time>
      </trkpt>
      <trkpt lat="44.15641" lon="5.01005">
        <ele>414</ele>
        <time>2020-01-23T16:37:58.50Z</time>
      </trkpt>
      <trkpt lat="44.1567" lon="5.01023">
        <ele>411</ele>
        <time>2020-01-23T16:38:38.32Z</time>
      </trkpt>
      <trkpt lat="44.15687" lon="5.01022">
        <ele>408</ele>
        <time>2020-01-23T16:38:59.65Z</time>
      </trkpt>
      <trkpt lat="44.15715" lon="5.00961">
        <ele>399</ele>
        <time>2020-01-23T16:40:10.41Z</time>
      </trkpt>
      <trkpt lat="44.15723" lon="5.0095">
        <ele>397</ele>
        <time>2020-01-23T16:40:25.71Z</time>
      </trkpt>
      <trkpt lat="44.15748" lon="5.00931">
        <ele>392</ele>
        <time>2020-01-23T16:41:01.28Z</time>
      </trkpt>
      <trkpt lat="44.15769" lon="5.00909">
        <ele>389</ele>
        <time>2020-01-23T16:41:32.37Z</time>
      </trkpt>
      <trkpt lat="44.15791" lon="5.00876">
        <ele>386</ele>
        <time>2020-01-23T16:42:08.56Z</time>
      </trkpt>
      <trkpt lat="44.15808" lon="5.0087">
        <ele>385</ele>
        <time>2020-01-23T16:42:28.05Z</time>
      </trkpt>
      <trkpt lat="44.15825" lon="5.00872">
        <ele>385</ele>
        <time>2020-01-23T16:42:47Z</time>
      </trkpt>
      <trkpt lat="44.15871" lon="5.00877">
        <ele>383</ele>
        <time>2020-01-23T16:43:38.27Z</time>
      </trkpt>
      <trkpt lat="44.15893" lon="5.00862">
        <ele>382</ele>
        <time>2020-01-23T16:44:05.59Z</time>
      </trkpt>
      <trkpt lat="44.1591" lon="5.00871">
        <ele>381</ele>
        <time>2020-01-23T16:44:26.53Z</time>
      </trkpt>
      <trkpt lat="44.15917" lon="5.00879">
        <ele>380</ele>
        <time>2020-01-23T16:44:37.15Z</time>
      </trkpt>
      <trkpt lat="44.15942" lon="5.00933">
        <ele>375</ele>
        <time>2020-01-23T16:45:34.49Z</time>
      </trkpt>
      <trkpt lat="44.15946" lon="5.00932">
        <ele>374</ele>
        <time>2020-01-23T16:45:39.53Z</time>
      </trkpt>
      <trkpt lat="44.15945" lon="5.00918">
        <ele>373</ele>
        <time>2020-01-23T16:45:52.09Z</time>
      </trkpt>
      <trkpt lat="44.15924" lon="5.00861">
        <ele>365</ele>
        <time>2020-01-23T16:46:55.71Z</time>
      </trkpt>
      <trkpt lat="44.1592" lon="5.00832">
        <ele>361</ele>
        <time>2020-01-23T16:47:25.04Z</time>
      </trkpt>
      <trkpt lat="44.15932" lon="5.00765">
        <ele>352</ele>
        <time>2020-01-23T16:48:35.88Z</time>
      </trkpt>
      <trkpt lat="44.15933" lon="5.0071">
        <ele>344</ele>
        <time>2020-01-23T16:49:30.88Z</time>
      </trkpt>
      <trkpt lat="44.15946" lon="5.00653">
        <ele>337</ele>
        <time>2020-01-23T16:50:28.55Z</time>
      </trkpt>
      <trkpt lat="44.15943" lon="5.00626">
        <ele>334</ele>
        <time>2020-01-23T16:50:54.90Z</time>
      </trkpt>
      <trkpt lat="44.15945" lon="5.00574">
        <ele>327</ele>
        <time>2020-01-23T16:51:47.43Z</time>
      </trkpt>
      <trkpt lat="44.15937" lon="5.00461">
        <ele>312</ele>
        <time>2020-01-23T16:53:44.23Z</time>
      </trkpt>
      <trkpt lat="44.15953" lon="5.00429">
        <ele>306</ele>
        <time>2020-01-23T16:54:26.29Z</time>
      </trkpt>
      <trkpt lat="44.1597" lon="5.00404">
        <ele>301</ele>
        <time>2020-01-23T16:55:00.68Z</time>
      </trkpt>
      <trkpt lat="44.15983" lon="5.00366">
        <ele>296</ele>
        <time>2020-01-23T16:55:42.51Z</time>
      </trkpt>
      <trkpt lat="44.16022" lon="5.00328">
        <ele>287</ele>
        <time>2020-01-23T16:56:49.27Z</time>
      </trkpt>
      <trkpt lat="44.16029" lon="5.0031">
        <ele>285</ele>
        <time>2020-01-23T16:57:10.03Z</time>
      </trkpt>
      <trkpt lat="44.16047" lon="5.00318">
        <ele>281</ele>
        <time>2020-01-23T16:57:36.97Z</time>
      </trkpt>
      <trkpt lat="44.1606" lon="5.00329">
        <ele>278</ele>
        <time>2020-01-23T16:57:59.35Z</time>
      </trkpt>
      <trkpt lat="44.16086" lon="5.00372">
        <ele>270</ele>
        <time>2020-01-23T16:58:56.32Z</time>
      </trkpt>
      <trkpt lat="44.16103" lon="5.00392">
        <ele>265</ele>
        <time>2020-01-23T16:59:27.72Z</time>
      </trkpt>
      <trkpt lat="44.16137" lon="5.00419">
        <ele>259</ele>
        <time>2020-01-23T17:00:16.17Z</time>
      </trkpt>
      <trkpt lat="44.16161" lon="5.00432">
        <ele>256</ele>
        <time>2020-01-23T17:00:44.80Z</time>
      </trkpt>
      <trkpt lat="44.16197" lon="5.00472">
        <ele>257</ele>
        <time>2020-01-23T17:01:40.76Z</time>
      </trkpt>
      <trkpt lat="44.16217" lon="5.00481">
        <ele>259</ele>
        <time>2020-01-23T17:02:06.15Z</time>
      </trkpt>
      <trkpt lat="44.16226" lon="5.00489">
        <ele>260</ele>
        <time>2020-01-23T17:02:19.40Z</time>
      </trkpt>
      <trkpt lat="44.16272" lon="5.00482">
        <ele>262</ele>
        <time>2020-01-23T17:03:10.82Z</time>
      </trkpt>
      <trkpt lat="44.16293" lon="5.00468">
        <ele>260</ele>
        <time>2020-01-23T17:03:38.51Z</time>
      </trkpt>
      <trkpt lat="44.16291" lon="5.00449">
        <ele>258</ele>
        <time>2020-01-23T17:03:54.94Z</time>
      </trkpt>
      <trkpt lat="44.16317" lon="5.00433">
        <ele>255</ele>
        <time>2020-01-23T17:04:29.13Z</time>
      </trkpt>
      <trkpt lat="44.16335" lon="5.00435">
        <ele>253</ele>
        <time>2020-01-23T17:04:49.21Z</time>
      </trkpt>
      <trkpt lat="44.16339" lon="5.0043">
        <ele>252</ele>
        <time>2020-01-23T17:04:55.19Z</time>
      </trkpt>
      <trkpt lat="44.16372" lon="5.00454">
        <ele>253</ele>
        <time>2020-01-23T17:05:38.58Z</time>
      </trkpt>
      <trkpt lat="44.1637" lon="5.00459">
        <ele>254</ele>
        <time>2020-01-23T17:05:43.56Z</time>
      </trkpt>
    </trkseg>
  </trk>
</gpx>